AMU128 VMMC-ZSNJ
Flight info
| Callsign | AMU128 |
|---|---|
| Flight time | N/A |
| Altitude | 35000 |
| Route | NUDPI V601 DOTMI/K0869S1070 A470 EMRID W135 ADBAS/K0863S1100 W135 KAKIS KAK71F |
| Aircraft | A320/M-SDE3FGHIRWY/LB1 |
Departure
| Time | 2026-04-16 10:54 |
|---|---|
| Airport | Macau International Airport (VMMC) |
Arrival
| Time | N/A |
|---|---|
| Airport | Nanjing Lukou International Airport (ZSNJ) |
| Time | Latitude | Longitude | Altitude | Speed | Heading |
|---|---|---|---|---|---|
| 2026-04-16 10:15 | 22.15656 | 113.57707 | 29 ft | 0 kts | 123° |
| 2026-04-16 10:44 | 22.15663 | 113.57695 | 29 ft | 3 kts | 121° |
| 2026-04-16 10:44 | 22.15675 | 113.57673 | 29 ft | 3 kts | 113° |
| 2026-04-16 10:44 | 22.15683 | 113.57649 | 29 ft | 3 kts | 97° |
| 2026-04-16 10:44 | 22.15682 | 113.57626 | 29 ft | 3 kts | 54° |
| 2026-04-16 10:45 | 22.15677 | 113.57620 | 29 ft | 0 kts | 36° |
| 2026-04-16 10:48 | 22.15679 | 113.57622 | 29 ft | 1 kts | 36° |
| 2026-04-16 10:48 | 22.15696 | 113.57634 | 29 ft | 5 kts | 33° |
| 2026-04-16 10:48 | 22.15738 | 113.57658 | 29 ft | 9 kts | 27° |
| 2026-04-16 10:48 | 22.15806 | 113.57684 | 29 ft | 12 kts | 15° |
| 2026-04-16 10:49 | 22.15898 | 113.57710 | 29 ft | 16 kts | 14° |
| 2026-04-16 10:49 | 22.16011 | 113.57742 | 29 ft | 16 kts | 14° |
| 2026-04-16 10:49 | 22.16086 | 113.57775 | 29 ft | 10 kts | 55° |
| 2026-04-16 10:49 | 22.16116 | 113.57854 | 29 ft | 12 kts | 70° |
| 2026-04-16 10:50 | 22.16146 | 113.57946 | 29 ft | 14 kts | 71° |
| 2026-04-16 10:50 | 22.16180 | 113.58052 | 29 ft | 16 kts | 71° |
| 2026-04-16 10:50 | 22.16218 | 113.58170 | 29 ft | 17 kts | 71° |
| 2026-04-16 10:50 | 22.16260 | 113.58300 | 29 ft | 19 kts | 70° |
| 2026-04-16 10:51 | 22.16298 | 113.58422 | 29 ft | 13 kts | 71° |
| 2026-04-16 10:51 | 22.16321 | 113.58495 | 29 ft | 7 kts | 72° |
| 2026-04-16 10:51 | 22.16323 | 113.58500 | 29 ft | 0 kts | 72° |
| 2026-04-16 10:51 | 22.16324 | 113.58505 | 29 ft | 2 kts | 72° |
| 2026-04-16 10:52 | 22.16334 | 113.58536 | 29 ft | 6 kts | 71° |
| 2026-04-16 10:52 | 22.16351 | 113.58593 | 29 ft | 9 kts | 72° |
| 2026-04-16 10:52 | 22.16322 | 113.58646 | 29 ft | 10 kts | 173° |
| 2026-04-16 10:52 | 22.16248 | 113.58665 | 29 ft | 12 kts | 161° |
| 2026-04-16 10:53 | 22.16134 | 113.58707 | 29 ft | 31 kts | 161° |
| 2026-04-16 10:53 | 22.15712 | 113.58862 | 27 ft | 95 kts | 161° |
| 2026-04-16 10:53 | 22.14922 | 113.59152 | 29 ft | 142 kts | 161° |
| 2026-04-16 10:53 | 22.13871 | 113.59536 | 203 ft | 166 kts | 162° |
| 2026-04-16 10:54 | 22.12785 | 113.59952 | 793 ft | 166 kts | 162° |
| 2026-04-16 10:54 | 22.11694 | 113.60375 | 1404 ft | 166 kts | 161° |
| 2026-04-16 10:54 | 22.10585 | 113.60791 | 1861 ft | 176 kts | 161° |
| 2026-04-16 10:54 | 22.09347 | 113.61253 | 2098 ft | 198 kts | 163° |
| 2026-04-16 10:55 | 22.07961 | 113.61768 | 2345 ft | 223 kts | 163° |
| 2026-04-16 10:55 | 22.06415 | 113.62345 | 2703 ft | 247 kts | 163° |
| 2026-04-16 10:55 | 22.04739 | 113.62974 | 3290 ft | 261 kts | 163° |
| 2026-04-16 10:55 | 22.02995 | 113.63629 | 4015 ft | 268 kts | 162° |
| 2026-04-16 10:56 | 22.01243 | 113.64288 | 4809 ft | 273 kts | 163° |
| 2026-04-16 10:56 | 21.99441 | 113.64966 | 5594 ft | 276 kts | 162° |
| 2026-04-16 10:56 | 21.97627 | 113.65647 | 6410 ft | 277 kts | 163° |
| 2026-04-16 10:56 | 21.95772 | 113.66332 | 7140 ft | 280 kts | 163° |
| 2026-04-16 10:57 | 21.93937 | 113.66997 | 7847 ft | 283 kts | 163° |
| 2026-04-16 10:57 | 21.92056 | 113.67673 | 8527 ft | 287 kts | 163° |
| 2026-04-16 10:57 | 21.90150 | 113.68356 | 9218 ft | 291 kts | 164° |
| 2026-04-16 10:57 | 21.88186 | 113.69059 | 9889 ft | 296 kts | 164° |
| 2026-04-16 10:58 | 21.86224 | 113.69759 | 10266 ft | 311 kts | 163° |
| 2026-04-16 10:58 | 21.84090 | 113.70520 | 10404 ft | 333 kts | 163° |
| 2026-04-16 10:58 | 21.81820 | 113.71334 | 10526 ft | 354 kts | 163° |
| 2026-04-16 10:58 | 21.79424 | 113.72198 | 10671 ft | 372 kts | 163° |
| 2026-04-16 10:59 | 21.76947 | 113.73097 | 11091 ft | 379 kts | 163° |
| 2026-04-16 10:59 | 21.74434 | 113.74007 | 11628 ft | 382 kts | 163° |
| 2026-04-16 10:59 | 21.71909 | 113.74917 | 11855 ft | 384 kts | 163° |
| 2026-04-16 10:59 | 21.69379 | 113.75828 | 11921 ft | 384 kts | 163° |
| 2026-04-16 11:00 | 21.66843 | 113.76739 | 11928 ft | 384 kts | 163° |
| 2026-04-16 11:00 | 21.64324 | 113.77695 | 11929 ft | 385 kts | 158° |
| 2026-04-16 11:00 | 21.62025 | 113.79178 | 11927 ft | 388 kts | 143° |
| 2026-04-16 11:00 | 21.60143 | 113.81267 | 11927 ft | 391 kts | 128° |
| 2026-04-16 11:01 | 21.58820 | 113.83827 | 11926 ft | 394 kts | 112° |
| 2026-04-16 11:01 | 21.58164 | 113.86679 | 11927 ft | 395 kts | 96° |
| 2026-04-16 11:01 | 21.58038 | 113.89636 | 11933 ft | 396 kts | 92° |
| 2026-04-16 11:01 | 21.57945 | 113.92590 | 11930 ft | 396 kts | 92° |
| 2026-04-16 11:02 | 21.57847 | 113.95550 | 11931 ft | 396 kts | 92° |
| 2026-04-16 11:02 | 21.57742 | 113.98509 | 11932 ft | 396 kts | 93° |
| 2026-04-16 11:02 | 21.57633 | 114.01470 | 11938 ft | 396 kts | 93° |
| 2026-04-16 11:02 | 21.57523 | 114.04427 | 11936 ft | 396 kts | 93° |
| 2026-04-16 11:03 | 21.57411 | 114.07387 | 11930 ft | 396 kts | 93° |
| 2026-04-16 11:03 | 21.57300 | 114.10351 | 11935 ft | 396 kts | 93° |
| 2026-04-16 11:03 | 21.57081 | 114.16265 | 11934 ft | 396 kts | 93° |
| 2026-04-16 11:04 | 21.56976 | 114.19227 | 11939 ft | 397 kts | 93° |
| 2026-04-16 11:04 | 21.56873 | 114.22153 | 11937 ft | 397 kts | 93° |
| 2026-04-16 11:04 | 21.56767 | 114.25118 | 11936 ft | 397 kts | 93° |
| 2026-04-16 11:04 | 21.56658 | 114.28086 | 11935 ft | 397 kts | 93° |
| 2026-04-16 11:05 | 21.56551 | 114.30994 | 11935 ft | 397 kts | 93° |
| 2026-04-16 11:05 | 21.56438 | 114.33959 | 11933 ft | 397 kts | 93° |
| 2026-04-16 11:05 | 21.56323 | 114.36928 | 11933 ft | 397 kts | 93° |
| 2026-04-16 11:05 | 21.56206 | 114.39890 | 11936 ft | 397 kts | 93° |
| 2026-04-16 11:06 | 21.56088 | 114.42849 | 11940 ft | 397 kts | 93° |
| 2026-04-16 11:06 | 21.55969 | 114.45809 | 11940 ft | 397 kts | 93° |
| 2026-04-16 11:06 | 21.55853 | 114.48784 | 12255 ft | 400 kts | 93° |
| 2026-04-16 11:06 | 21.55741 | 114.51784 | 12804 ft | 404 kts | 93° |
| 2026-04-16 11:07 | 21.55629 | 114.54816 | 13303 ft | 408 kts | 93° |
| 2026-04-16 11:07 | 21.55512 | 114.57876 | 13792 ft | 412 kts | 93° |
| 2026-04-16 11:07 | 21.55390 | 114.60968 | 14246 ft | 416 kts | 93° |
| 2026-04-16 11:07 | 21.55320 | 114.64086 | 14722 ft | 420 kts | 87° |
| 2026-04-16 11:08 | 21.55891 | 114.67169 | 15197 ft | 424 kts | 70° |
| 2026-04-16 11:08 | 21.56952 | 114.70130 | 15691 ft | 426 kts | 68° |
| 2026-04-16 11:08 | 21.58043 | 114.73103 | 16187 ft | 429 kts | 68° |
| 2026-04-16 11:08 | 21.59148 | 114.76099 | 16678 ft | 433 kts | 68° |
| 2026-04-16 11:09 | 21.60258 | 114.79109 | 17179 ft | 436 kts | 68° |
| 2026-04-16 11:09 | 21.61382 | 114.82152 | 17674 ft | 439 kts | 68° |
| 2026-04-16 11:09 | 21.62513 | 114.85213 | 18153 ft | 442 kts | 68° |
| 2026-04-16 11:09 | 21.63646 | 114.88293 | 18562 ft | 445 kts | 68° |
| 2026-04-16 11:10 | 21.64781 | 114.91396 | 18948 ft | 448 kts | 68° |
| 2026-04-16 11:10 | 21.65921 | 114.94530 | 19330 ft | 451 kts | 69° |
| 2026-04-16 11:10 | 21.67064 | 114.97688 | 19708 ft | 454 kts | 69° |
| 2026-04-16 11:10 | 21.68219 | 115.00865 | 20080 ft | 458 kts | 68° |
| 2026-04-16 11:11 | 21.69382 | 115.04056 | 20462 ft | 460 kts | 68° |
| 2026-04-16 11:11 | 21.70553 | 115.07266 | 20822 ft | 463 kts | 68° |
| 2026-04-16 11:11 | 21.71730 | 115.10496 | 21173 ft | 465 kts | 68° |
| 2026-04-16 11:11 | 21.72914 | 115.13753 | 21506 ft | 469 kts | 68° |
| 2026-04-16 11:12 | 21.74105 | 115.17030 | 21813 ft | 472 kts | 68° |
| 2026-04-16 11:12 | 21.75303 | 115.20326 | 22126 ft | 475 kts | 68° |
| 2026-04-16 11:12 | 21.76511 | 115.23650 | 22437 ft | 478 kts | 68° |
| 2026-04-16 11:12 | 21.77724 | 115.26990 | 22740 ft | 480 kts | 68° |
| 2026-04-16 11:13 | 21.78942 | 115.30348 | 23033 ft | 483 kts | 68° |
| 2026-04-16 11:13 | 21.80166 | 115.33721 | 23324 ft | 485 kts | 68° |
| 2026-04-16 11:13 | 21.81394 | 115.37111 | 23600 ft | 487 kts | 68° |
| 2026-04-16 11:13 | 21.82625 | 115.40519 | 23839 ft | 490 kts | 69° |
| 2026-04-16 11:14 | 21.83859 | 115.43942 | 24078 ft | 491 kts | 69° |
| 2026-04-16 11:14 | 21.85095 | 115.47372 | 24323 ft | 493 kts | 68° |
| 2026-04-16 11:14 | 21.86342 | 115.50823 | 24561 ft | 495 kts | 68° |
| 2026-04-16 11:14 | 21.87167 | 115.53110 | 24706 ft | 496 kts | 68° |
| 2026-04-16 11:15 | 21.88420 | 115.56587 | 24938 ft | 498 kts | 68° |
| 2026-04-16 11:15 | 21.89672 | 115.60064 | 25168 ft | 499 kts | 68° |
| 2026-04-16 11:15 | 21.90764 | 115.63619 | 25393 ft | 501 kts | 76° |
| 2026-04-16 11:15 | 21.91536 | 115.67343 | 25638 ft | 502 kts | 78° |
| 2026-04-16 11:16 | 21.92276 | 115.71007 | 25998 ft | 501 kts | 78° |
| 2026-04-16 11:16 | 21.93015 | 115.74681 | 26298 ft | 501 kts | 78° |
| 2026-04-16 11:16 | 21.93752 | 115.78349 | 26604 ft | 502 kts | 78° |
| 2026-04-16 11:16 | 21.94491 | 115.82021 | 26931 ft | 502 kts | 78° |
| 2026-04-16 11:17 | 21.95235 | 115.85687 | 27272 ft | 501 kts | 78° |
| 2026-04-16 11:17 | 21.95983 | 115.89356 | 27618 ft | 501 kts | 78° |
| 2026-04-16 11:17 | 21.96728 | 115.93018 | 27972 ft | 501 kts | 78° |
| 2026-04-16 11:17 | 21.97472 | 115.96690 | 28337 ft | 500 kts | 78° |
| 2026-04-16 11:18 | 21.98207 | 116.00347 | 28731 ft | 499 kts | 78° |
| 2026-04-16 11:18 | 21.98937 | 116.04002 | 29117 ft | 499 kts | 78° |
| 2026-04-16 11:18 | 21.99703 | 116.07589 | 29495 ft | 498 kts | 72° |
| 2026-04-16 11:18 | 22.01084 | 116.11050 | 29877 ft | 496 kts | 57° |
| 2026-04-16 11:19 | 22.03156 | 116.13992 | 30217 ft | 492 kts | 43° |
| 2026-04-16 11:19 | 22.05750 | 116.16278 | 30523 ft | 486 kts | 28° |
| 2026-04-16 11:19 | 22.08758 | 116.17858 | 30842 ft | 478 kts | 14° |
| 2026-04-16 11:19 | 22.11967 | 116.18637 | 31165 ft | 469 kts | 0° |
| 2026-04-16 11:20 | 22.15199 | 116.18681 | 31497 ft | 463 kts | 353° |
| 2026-04-16 11:20 | 22.18422 | 116.18571 | 31836 ft | 463 kts | 353° |
| 2026-04-16 11:20 | 22.21639 | 116.18462 | 32196 ft | 462 kts | 353° |
| 2026-04-16 11:20 | 22.24851 | 116.18357 | 32565 ft | 461 kts | 353° |
| 2026-04-16 11:21 | 22.28056 | 116.18254 | 32934 ft | 460 kts | 353° |
| 2026-04-16 11:21 | 22.31255 | 116.18152 | 33316 ft | 459 kts | 353° |
| 2026-04-16 11:21 | 22.34443 | 116.18049 | 33689 ft | 458 kts | 353° |
| 2026-04-16 11:21 | 22.37631 | 116.17947 | 34034 ft | 457 kts | 353° |
| 2026-04-16 11:22 | 22.40810 | 116.17844 | 34338 ft | 457 kts | 353° |
| 2026-04-16 11:22 | 22.43983 | 116.17743 | 34631 ft | 456 kts | 353° |
| 2026-04-16 11:22 | 22.47156 | 116.17641 | 34872 ft | 456 kts | 353° |
| 2026-04-16 11:23 | 22.53554 | 116.17427 | 34948 ft | 466 kts | 353° |
| 2026-04-16 11:23 | 22.60094 | 116.17204 | 34945 ft | 472 kts | 353° |
| 2026-04-16 11:24 | 22.66682 | 116.17076 | 34944 ft | 477 kts | 359° |
| 2026-04-16 11:24 | 22.73203 | 116.18757 | 34960 ft | 491 kts | 20° |
| 2026-04-16 11:25 | 22.79010 | 116.22772 | 34952 ft | 500 kts | 34° |
| 2026-04-16 11:25 | 22.84537 | 116.27362 | 34944 ft | 501 kts | 34° |
| 2026-04-16 11:26 | 22.90080 | 116.31962 | 35026 ft | 501 kts | 34° |
| 2026-04-16 11:26 | 22.95585 | 116.36537 | 35046 ft | 501 kts | 34° |
| 2026-04-16 11:27 | 23.01131 | 116.41119 | 35048 ft | 501 kts | 33° |
| 2026-04-16 11:27 | 23.06684 | 116.45686 | 35046 ft | 501 kts | 33° |
| 2026-04-16 11:28 | 23.12234 | 116.50272 | 35044 ft | 501 kts | 34° |
| 2026-04-16 11:28 | 23.17817 | 116.54903 | 35043 ft | 501 kts | 34° |
| 2026-04-16 11:29 | 23.23364 | 116.59512 | 35053 ft | 502 kts | 34° |
| 2026-04-16 11:29 | 23.28919 | 116.64126 | 35056 ft | 503 kts | 34° |
| 2026-04-16 11:30 | 23.34478 | 116.68744 | 35047 ft | 503 kts | 34° |
| 2026-04-16 11:30 | 23.40036 | 116.73363 | 35047 ft | 503 kts | 34° |
| 2026-04-16 11:31 | 23.45413 | 116.78246 | 35047 ft | 507 kts | 43° |
| 2026-04-16 11:31 | 23.50294 | 116.83784 | 35070 ft | 507 kts | 43° |
| 2026-04-16 11:32 | 23.55182 | 116.89333 | 35059 ft | 507 kts | 43° |
| 2026-04-16 11:32 | 23.60067 | 116.94887 | 35059 ft | 508 kts | 43° |
| 2026-04-16 11:33 | 23.64949 | 117.00448 | 35063 ft | 508 kts | 43° |
| 2026-04-16 11:33 | 23.69837 | 117.06014 | 35066 ft | 508 kts | 43° |
| 2026-04-16 11:34 | 23.74725 | 117.11580 | 35082 ft | 508 kts | 43° |
| 2026-04-16 11:34 | 23.79717 | 117.17026 | 35077 ft | 506 kts | 39° |
| 2026-04-16 11:35 | 23.84995 | 117.22114 | 35066 ft | 505 kts | 37° |
| 2026-04-16 11:35 | 23.90340 | 117.27102 | 35069 ft | 506 kts | 37° |
| 2026-04-16 11:36 | 23.95620 | 117.32195 | 35087 ft | 506 kts | 38° |
| 2026-04-16 11:36 | 24.00854 | 117.37361 | 35079 ft | 507 kts | 39° |
| 2026-04-16 11:37 | 24.06093 | 117.42529 | 35077 ft | 507 kts | 39° |
| 2026-04-16 11:37 | 24.11344 | 117.47693 | 35069 ft | 507 kts | 38° |
| 2026-04-16 11:38 | 24.16361 | 117.53148 | 35068 ft | 510 kts | 45° |
| 2026-04-16 11:38 | 24.21143 | 117.58890 | 35084 ft | 510 kts | 45° |